sensor_id;sensor_type;location;lat;lon;timestamp;pressure;altitude;pressure_sealevel;temperature;humidity
84677;BME280;74901;55.024;73.254;2024-01-07T00:02:04;101325.41;;;-21.84;71.54
84677;BME280;74901;55.024;73.254;2024-01-07T00:04:47;101321.03;;;-21.99;71.79
84677;BME280;74901;55.024;73.254;2024-01-07T00:07:19;101322.00;;;-21.92;71.79
84677;BME280;74901;55.024;73.254;2024-01-07T00:10:07;101329.53;;;-21.73;72.14
84677;BME280;74901;55.024;73.254;2024-01-07T00:12:45;101324.94;;;-21.63;71.27
84677;BME280;74901;55.024;73.254;2024-01-07T00:15:31;101323.66;;;-21.67;71.06
84677;BME280;74901;55.024;73.254;2024-01-07T00:18:19;101327.41;;;-21.69;71.24
84677;BME280;74901;55.024;73.254;2024-01-07T00:20:54;101321.69;;;-21.65;71.30
84677;BME280;74901;55.024;73.254;2024-01-07T00:23:22;101313.38;;;-21.60;71.19
84677;BME280;74901;55.024;73.254;2024-01-07T00:25:53;101304.91;;;-21.54;70.66
84677;BME280;74901;55.024;73.254;2024-01-07T00:28:22;101303.09;;;-21.46;70.50
84677;BME280;74901;55.024;73.254;2024-01-07T00:30:51;101300.47;;;-21.37;70.71
84677;BME280;74901;55.024;73.254;2024-01-07T00:33:19;101298.19;;;-21.24;70.85
84677;BME280;74901;55.024;73.254;2024-01-07T00:35:49;101300.06;;;-21.10;70.02
84677;BME280;74901;55.024;73.254;2024-01-07T00:38:20;101299.22;;;-21.03;70.12
84677;BME280;74901;55.024;73.254;2024-01-07T00:40:49;101304.44;;;-20.94;70.09
84677;BME280;74901;55.024;73.254;2024-01-07T00:43:19;101307.34;;;-20.81;70.54
84677;BME280;74901;55.024;73.254;2024-01-07T00:45:51;101298.97;;;-20.69;69.92
84677;BME280;74901;55.024;73.254;2024-01-07T00:48:19;101310.66;;;-20.57;70.35
84677;BME280;74901;55.024;73.254;2024-01-07T00:50:48;101309.13;;;-20.43;70.05
84677;BME280;74901;55.024;73.254;2024-01-07T00:53:17;101311.38;;;-20.32;69.54
84677;BME280;74901;55.024;73.254;2024-01-07T00:55:46;101314.56;;;-20.30;69.66
84677;BME280;74901;55.024;73.254;2024-01-07T00:58:15;101319.63;;;-20.28;69.57
84677;BME280;74901;55.024;73.254;2024-01-07T01:00:46;101304.75;;;-20.28;69.97
84677;BME280;74901;55.024;73.254;2024-01-07T01:03:15;101308.78;;;-20.17;70.45
84677;BME280;74901;55.024;73.254;2024-01-07T01:05:44;101317.09;;;-20.13;69.96
84677;BME280;74901;55.024;73.254;2024-01-07T01:08:37;101320.19;;;-20.10;70.32
84677;BME280;74901;55.024;73.254;2024-01-07T01:11:09;101319.03;;;-20.07;70.45
84677;BME280;74901;55.024;73.254;2024-01-07T01:13:39;101310.81;;;-20.04;70.64
84677;BME280;74901;55.024;73.254;2024-01-07T01:16:10;101312.28;;;-20.02;70.16
84677;BME280;74901;55.024;73.254;2024-01-07T01:18:39;101307.53;;;-19.98;70.33
84677;BME280;74901;55.024;73.254;2024-01-07T01:21:10;101313.84;;;-19.93;70.48
84677;BME280;74901;55.024;73.254;2024-01-07T01:23:39;101310.25;;;-19.92;70.07
84677;BME280;74901;55.024;73.254;2024-01-07T01:26:08;101305.69;;;-19.90;70.66
84677;BME280;74901;55.024;73.254;2024-01-07T01:28:38;101306.94;;;-19.86;70.31
84677;BME280;74901;55.024;73.254;2024-01-07T01:31:14;101304.00;;;-19.83;71.07
84677;BME280;74901;55.024;73.254;2024-01-07T01:33:43;101310.84;;;-19.82;70.46
84677;BME280;74901;55.024;73.254;2024-01-07T01:36:15;101308.84;;;-19.80;70.45
84677;BME280;74901;55.024;73.254;2024-01-07T01:38:44;101310.97;;;-19.75;70.73
84677;BME280;74901;55.024;73.254;2024-01-07T01:41:18;101312.41;;;-19.73;71.21
84677;BME280;74901;55.024;73.254;2024-01-07T01:43:47;101314.84;;;-19.71;71.00
84677;BME280;74901;55.024;73.254;2024-01-07T01:46:21;101307.47;;;-19.67;70.60
84677;BME280;74901;55.024;73.254;2024-01-07T01:48:50;101316.13;;;-19.67;70.51
84677;BME280;74901;55.024;73.254;2024-01-07T01:51:21;101309.91;;;-19.66;70.56
84677;BME280;74901;55.024;73.254;2024-01-07T01:53:51;101312.34;;;-19.64;70.67
84677;BME280;74901;55.024;73.254;2024-01-07T01:56:20;101294.47;;;-19.76;70.67
84677;BME280;74901;55.024;73.254;2024-01-07T01:58:50;101291.84;;;-19.76;70.96
84677;BME280;74901;55.024;73.254;2024-01-07T02:01:21;101308.28;;;-19.67;70.84
84677;BME280;74901;55.024;73.254;2024-01-07T02:03:50;101305.50;;;-19.65;70.94
84677;BME280;74901;55.024;73.254;2024-01-07T02:06:22;101316.59;;;-19.63;70.85
84677;BME280;74901;55.024;73.254;2024-01-07T02:08:52;101307.78;;;-19.62;71.05
84677;BME280;74901;55.024;73.254;2024-01-07T02:11:22;101293.38;;;-19.66;70.99
84677;BME280;74901;55.024;73.254;2024-01-07T02:13:51;101304.03;;;-19.68;71.67
84677;BME280;74901;55.024;73.254;2024-01-07T02:16:24;101315.97;;;-19.65;71.55
84677;BME280;74901;55.024;73.254;2024-01-07T02:18:55;101310.56;;;-19.64;71.21
84677;BME280;74901;55.024;73.254;2024-01-07T02:21:26;101308.28;;;-19.67;71.42
84677;BME280;74901;55.024;73.254;2024-01-07T02:23:56;101317.09;;;-19.68;70.99
84677;BME280;74901;55.024;73.254;2024-01-07T02:26:27;101318.75;;;-19.67;71.69
84677;BME280;74901;55.024;73.254;2024-01-07T02:29:00;101309.25;;;-19.68;71.59
84677;BME280;74901;55.024;73.254;2024-01-07T02:31:30;101312.41;;;-19.73;71.33
84677;BME280;74901;55.024;73.254;2024-01-07T02:33:58;101303.47;;;-19.78;71.90
84677;BME280;74901;55.024;73.254;2024-01-07T02:36:30;101309.97;;;-19.74;71.39
84677;BME280;74901;55.024;73.254;2024-01-07T02:38:58;101313.72;;;-19.68;71.79
84677;BME280;74901;55.024;73.254;2024-01-07T02:41:32;101315.69;;;-19.70;71.58
84677;BME280;74901;55.024;73.254;2024-01-07T02:44:01;101318.56;;;-19.65;71.17
84677;BME280;74901;55.024;73.254;2024-01-07T02:46:39;101309.75;;;-19.64;71.29
84677;BME280;74901;55.024;73.254;2024-01-07T02:49:08;101306.13;;;-19.63;71.28
84677;BME280;74901;55.024;73.254;2024-01-07T02:51:37;101313.78;;;-19.62;71.49
84677;BME280;74901;55.024;73.254;2024-01-07T02:54:06;101307.06;;;-19.56;71.25
84677;BME280;74901;55.024;73.254;2024-01-07T02:56:42;101302.28;;;-19.53;71.23
84677;BME280;74901;55.024;73.254;2024-01-07T02:59:11;101304.72;;;-19.51;71.29
84677;BME280;74901;55.024;73.254;2024-01-07T03:01:40;101298.69;;;-19.52;71.54
84677;BME280;74901;55.024;73.254;2024-01-07T03:04:11;101284.78;;;-19.52;71.63
84677;BME280;74901;55.024;73.254;2024-01-07T03:06:41;101276.75;;;-19.51;71.31
84677;BME280;74901;55.024;73.254;2024-01-07T03:09:13;101293.06;;;-19.49;71.06
84677;BME280;74901;55.024;73.254;2024-01-07T03:11:48;101268.97;;;-19.44;71.26
84677;BME280;74901;55.024;73.254;2024-01-07T03:14:17;101252.25;;;-19.43;71.24
84677;BME280;74901;55.024;73.254;2024-01-07T03:16:48;101276.28;;;-19.40;71.23
84677;BME280;74901;55.024;73.254;2024-01-07T03:19:20;101252.88;;;-19.41;71.28
84677;BME280;74901;55.024;73.254;2024-01-07T03:21:51;101268.97;;;-19.44;71.38
84677;BME280;74901;55.024;73.254;2024-01-07T03:24:20;101291.28;;;-19.48;71.35
84677;BME280;74901;55.024;73.254;2024-01-07T03:26:53;101296.50;;;-19.48;71.79
84677;BME280;74901;55.024;73.254;2024-01-07T03:29:22;101300.00;;;-19.56;71.58
84677;BME280;74901;55.024;73.254;2024-01-07T03:31:59;101293.50;;;-19.60;72.09
84677;BME280;74901;55.024;73.254;2024-01-07T03:34:29;101274.50;;;-19.77;71.90
84677;BME280;74901;55.024;73.254;2024-01-07T03:36:58;101290.59;;;-19.65;71.41
84677;BME280;74901;55.024;73.254;2024-01-07T03:39:32;101281.13;;;-19.66;72.04
84677;BME280;74901;55.024;73.254;2024-01-07T03:42:04;101285.19;;;-19.63;72.00
84677;BME280;74901;55.024;73.254;2024-01-07T03:44:48;101279.25;;;-19.57;71.63
84677;BME280;74901;55.024;73.254;2024-01-07T03:47:18;101297.84;;;-19.52;72.02
84677;BME280;74901;55.024;73.254;2024-01-07T03:49:48;101298.13;;;-19.47;72.10
84677;BME280;74901;55.024;73.254;2024-01-07T03:52:17;101294.78;;;-19.41;71.21
84677;BME280;74901;55.024;73.254;2024-01-07T03:54:46;101294.59;;;-19.40;71.39
84677;BME280;74901;55.024;73.254;2024-01-07T03:57:16;101231.34;;;-19.81;71.46
84677;BME280;74901;55.024;73.254;2024-01-07T03:59:45;101290.34;;;-19.41;71.76
84677;BME280;74901;55.024;73.254;2024-01-07T04:02:14;101274.56;;;-19.47;71.67
84677;BME280;74901;55.024;73.254;2024-01-07T04:04:43;101282.25;;;-19.31;71.18
84677;BME280;74901;55.024;73.254;2024-01-07T04:07:12;101272.50;;;-19.22;71.39
84677;BME280;74901;55.024;73.254;2024-01-07T04:09:43;101272.59;;;-19.16;70.88
84677;BME280;74901;55.024;73.254;2024-01-07T04:12:12;101264.66;;;-19.08;71.51
84677;BME280;74901;55.024;73.254;2024-01-07T04:14:46;101253.09;;;-18.99;71.51
84677;BME280;74901;55.024;73.254;2024-01-07T04:17:15;101251.38;;;-18.92;71.42
84677;BME280;74901;55.024;73.254;2024-01-07T04:19:47;101254.91;;;-18.84;71.35
84677;BME280;74901;55.024;73.254;2024-01-07T04:22:20;101245.75;;;-18.74;71.04
84677;BME280;74901;55.024;73.254;2024-01-07T04:24:52;101236.53;;;-18.70;71.47
84677;BME280;74901;55.024;73.254;2024-01-07T04:27:22;101228.84;;;-18.71;71.19
84677;BME280;74901;55.024;73.254;2024-01-07T04:29:55;101224.88;;;-18.67;71.32
84677;BME280;74901;55.024;73.254;2024-01-07T04:32:24;101225.50;;;-18.65;71.41
84677;BME280;74901;55.024;73.254;2024-01-07T04:34:53;101214.84;;;-18.64;71.12
84677;BME280;74901;55.024;73.254;2024-01-07T04:37:24;101216.09;;;-18.60;71.19
84677;BME280;74901;55.024;73.254;2024-01-07T04:39:53;101211.47;;;-18.58;71.34
84677;BME280;74901;55.024;73.254;2024-01-07T04:42:23;101203.63;;;-18.58;71.80
84677;BME280;74901;55.024;73.254;2024-01-07T04:44:54;101185.44;;;-18.59;71.61
84677;BME280;74901;55.024;73.254;2024-01-07T04:47:27;101196.34;;;-18.56;71.38
84677;BME280;74901;55.024;73.254;2024-01-07T04:49:57;101185.66;;;-18.54;71.49
84677;BME280;74901;55.024;73.254;2024-01-07T04:52:27;101188.72;;;-18.51;71.58
84677;BME280;74901;55.024;73.254;2024-01-07T04:54:56;101194.03;;;-18.44;71.32
84677;BME280;74901;55.024;73.254;2024-01-07T04:57:30;101200.34;;;-18.38;71.57
84677;BME280;74901;55.024;73.254;2024-01-07T05:00:07;101201.59;;;-18.34;71.36
84677;BME280;74901;55.024;73.254;2024-01-07T05:02:41;101210.16;;;-18.26;71.13
84677;BME280;74901;55.024;73.254;2024-01-07T05:05:14;101205.19;;;-18.21;71.68
84677;BME280;74901;55.024;73.254;2024-01-07T05:07:44;101214.34;;;-18.10;71.11
84677;BME280;74901;55.024;73.254;2024-01-07T05:10:12;101219.28;;;-18.00;70.84
84677;BME280;74901;55.024;73.254;2024-01-07T05:12:41;101214.72;;;-17.92;71.54
84677;BME280;74901;55.024;73.254;2024-01-07T05:15:12;101210.34;;;-17.85;71.14
84677;BME280;74901;55.024;73.254;2024-01-07T05:17:41;101204.16;;;-17.77;70.75
84677;BME280;74901;55.024;73.254;2024-01-07T05:20:10;101201.53;;;-17.71;71.49
84677;BME280;74901;55.024;73.254;2024-01-07T05:22:39;101198.38;;;-17.59;71.34
84677;BME280;74901;55.024;73.254;2024-01-07T05:25:08;101190.28;;;-17.58;70.77
84677;BME280;74901;55.024;73.254;2024-01-07T05:27:40;101189.16;;;-17.49;70.89
84677;BME280;74901;55.024;73.254;2024-01-07T05:30:09;101186.41;;;-17.41;70.87
84677;BME280;74901;55.024;73.254;2024-01-07T05:32:41;101168.19;;;-17.42;71.07
84677;BME280;74901;55.024;73.254;2024-01-07T05:35:10;101173.16;;;-17.19;71.08
84677;BME280;74901;55.024;73.254;2024-01-07T05:37:39;101172.81;;;-17.10;70.51
84677;BME280;74901;55.024;73.254;2024-01-07T05:40:09;101165.38;;;-17.00;70.84
84677;BME280;74901;55.024;73.254;2024-01-07T05:42:38;101158.69;;;-17.02;70.82
84677;BME280;74901;55.024;73.254;2024-01-07T05:45:07;101150.22;;;-16.98;70.61
84677;BME280;74901;55.024;73.254;2024-01-07T05:47:36;101150.63;;;-16.94;70.92
84677;BME280;74901;55.024;73.254;2024-01-07T05:50:07;101143.59;;;-16.87;70.83
84677;BME280;74901;55.024;73.254;2024-01-07T05:52:37;101146.25;;;-16.80;71.07
84677;BME280;74901;55.024;73.254;2024-01-07T05:55:07;101140.78;;;-16.79;70.74
84677;BME280;74901;55.024;73.254;2024-01-07T05:57:37;101144.81;;;-16.76;70.41
84677;BME280;74901;55.024;73.254;2024-01-07T06:00:07;101149.47;;;-16.85;70.98
84677;BME280;74901;55.024;73.254;2024-01-07T06:02:40;101146.41;;;-16.89;71.14
84677;BME280;74901;55.024;73.254;2024-01-07T06:05:11;101146.44;;;-16.75;70.68
84677;BME280;74901;55.024;73.254;2024-01-07T06:07:40;101139.78;;;-16.52;70.98
84677;BME280;74901;55.024;73.254;2024-01-07T06:10:09;101136.59;;;-16.34;70.48
84677;BME280;74901;55.024;73.254;2024-01-07T06:12:44;101145.31;;;-16.14;70.52
84677;BME280;74901;55.024;73.254;2024-01-07T06:15:15;101143.69;;;-15.88;69.82
84677;BME280;74901;55.024;73.254;2024-01-07T06:17:43;101136.38;;;-15.73;69.85
84677;BME280;74901;55.024;73.254;2024-01-07T06:20:15;101132.84;;;-15.47;69.45
84677;BME280;74901;55.024;73.254;2024-01-07T06:22:44;101119.00;;;-15.23;69.50
84677;BME280;74901;55.024;73.254;2024-01-07T06:25:13;101113.88;;;-15.05;69.49
84677;BME280;74901;55.024;73.254;2024-01-07T06:27:44;101116.41;;;-14.85;69.38
84677;BME280;74901;55.024;73.254;2024-01-07T06:30:16;101111.28;;;-14.73;69.21
84677;BME280;74901;55.024;73.254;2024-01-07T06:32:47;101108.56;;;-14.60;69.22
84677;BME280;74901;55.024;73.254;2024-01-07T06:35:21;101103.03;;;-14.52;69.17
84677;BME280;74901;55.024;73.254;2024-01-07T06:37:50;101111.72;;;-14.45;69.50
84677;BME280;74901;55.024;73.254;2024-01-07T06:40:23;101106.81;;;-14.42;69.41
84677;BME280;74901;55.024;73.254;2024-01-07T06:42:52;101102.97;;;-14.39;69.27
84677;BME280;74901;55.024;73.254;2024-01-07T06:45:32;101103.97;;;-14.40;69.23
84677;BME280;74901;55.024;73.254;2024-01-07T06:48:01;101101.00;;;-14.50;69.07
84677;BME280;74901;55.024;73.254;2024-01-07T06:50:32;101095.97;;;-14.58;69.62
84677;BME280;74901;55.024;73.254;2024-01-07T06:53:02;101098.06;;;-14.67;69.84
84677;BME280;74901;55.024;73.254;2024-01-07T06:55:31;101093.63;;;-14.73;69.89
84677;BME280;74901;55.024;73.254;2024-01-07T06:58:01;101088.78;;;-14.76;70.02
84677;BME280;74901;55.024;73.254;2024-01-07T07:00:32;101075.56;;;-14.69;69.84
84677;BME280;74901;55.024;73.254;2024-01-07T07:03:01;101080.97;;;-14.58;69.83
84677;BME280;74901;55.024;73.254;2024-01-07T07:05:31;101064.69;;;-14.55;69.60
84677;BME280;74901;55.024;73.254;2024-01-07T07:08:01;101061.78;;;-14.47;69.22
84677;BME280;74901;55.024;73.254;2024-01-07T07:10:29;101055.03;;;-14.43;69.14
84677;BME280;74901;55.024;73.254;2024-01-07T07:12:59;101057.13;;;-14.45;69.42
84677;BME280;74901;55.024;73.254;2024-01-07T07:15:28;101045.09;;;-14.41;69.34
84677;BME280;74901;55.024;73.254;2024-01-07T07:17:57;101031.28;;;-14.43;69.21
84677;BME280;74901;55.024;73.254;2024-01-07T07:23:18;101013.78;;;-14.62;69.68
84677;BME280;74901;55.024;73.254;2024-01-07T07:25:48;101023.06;;;-14.53;69.37
84677;BME280;74901;55.024;73.254;2024-01-07T07:28:17;101014.34;;;-14.53;69.15
84677;BME280;74901;55.024;73.254;2024-01-07T07:30:49;101008.84;;;-14.52;69.40
84677;BME280;74901;55.024;73.254;2024-01-07T07:33:18;100996.47;;;-14.51;69.56
84677;BME280;74901;55.024;73.254;2024-01-07T07:35:47;100997.13;;;-14.38;69.25
84677;BME280;74901;55.024;73.254;2024-01-07T07:38:17;100976.72;;;-14.49;69.23
84677;BME280;74901;55.024;73.254;2024-01-07T07:40:46;100988.97;;;-14.36;68.96
84677;BME280;74901;55.024;73.254;2024-01-07T07:43:19;101002.66;;;-14.39;69.21
84677;BME280;74901;55.024;73.254;2024-01-07T07:45:48;100976.81;;;-14.37;69.35
84677;BME280;74901;55.024;73.254;2024-01-07T07:48:18;100973.63;;;-14.39;68.56
84677;BME280;74901;55.024;73.254;2024-01-07T07:50:47;100949.88;;;-14.64;69.25
84677;BME280;74901;55.024;73.254;2024-01-07T07:53:24;100935.72;;;-14.69;69.13
84677;BME280;74901;55.024;73.254;2024-01-07T07:55:53;100969.31;;;-14.58;68.85
84677;BME280;74901;55.024;73.254;2024-01-07T07:58:22;100975.41;;;-14.58;69.19
84677;BME280;74901;55.024;73.254;2024-01-07T08:00:51;100962.50;;;-14.48;69.18
84677;BME280;74901;55.024;73.254;2024-01-07T08:03:21;100961.44;;;-14.40;69.31
84677;BME280;74901;55.024;73.254;2024-01-07T08:05:50;100957.44;;;-14.31;68.78
84677;BME280;74901;55.024;73.254;2024-01-07T08:08:19;100963.72;;;-14.25;69.07
84677;BME280;74901;55.024;73.254;2024-01-07T08:10:51;100947.41;;;-14.22;68.85
84677;BME280;74901;55.024;73.254;2024-01-07T08:13:21;100945.94;;;-14.18;68.73
84677;BME280;74901;55.024;73.254;2024-01-07T08:15:50;100945.88;;;-14.12;68.66
84677;BME280;74901;55.024;73.254;2024-01-07T08:18:19;100940.38;;;-14.10;68.85
84677;BME280;74901;55.024;73.254;2024-01-07T08:20:48;100941.94;;;-14.03;68.78
84677;BME280;74901;55.024;73.254;2024-01-07T08:23:17;100923.38;;;-13.96;69.12
84677;BME280;74901;55.024;73.254;2024-01-07T08:25:46;100920.50;;;-13.95;68.85
84677;BME280;74901;55.024;73.254;2024-01-07T08:28:17;100906.13;;;-13.99;69.29
84677;BME280;74901;55.024;73.254;2024-01-07T08:30:46;100909.19;;;-13.83;68.65
84677;BME280;74901;55.024;73.254;2024-01-07T08:33:15;100904.94;;;-13.84;68.60
84677;BME280;74901;55.024;73.254;2024-01-07T08:35:50;100901.41;;;-13.78;68.70
84677;BME280;74901;55.024;73.254;2024-01-07T08:38:25;100895.09;;;-13.77;68.80
84677;BME280;74901;55.024;73.254;2024-01-07T08:40:54;100893.03;;;-13.75;68.76
84677;BME280;74901;55.024;73.254;2024-01-07T08:43:24;100890.84;;;-13.78;69.14
84677;BME280;74901;55.024;73.254;2024-01-07T08:45:53;100877.88;;;-13.68;68.72
84677;BME280;74901;55.024;73.254;2024-01-07T08:48:23;100870.78;;;-13.68;68.90
84677;BME280;74901;55.024;73.254;2024-01-07T08:50:52;100861.81;;;-13.67;68.96
84677;BME280;74901;55.024;73.254;2024-01-07T08:53:22;100852.06;;;-13.66;68.34
84677;BME280;74901;55.024;73.254;2024-01-07T08:55:54;100844.34;;;-13.68;68.75
84677;BME280;74901;55.024;73.254;2024-01-07T08:58:24;100852.06;;;-13.66;68.39
84677;BME280;74901;55.024;73.254;2024-01-07T09:00:55;100850.91;;;-13.70;68.22
84677;BME280;74901;55.024;73.254;2024-01-07T09:03:24;100846.06;;;-13.73;68.74
84677;BME280;74901;55.024;73.254;2024-01-07T09:05:55;100847.19;;;-13.69;68.45
84677;BME280;74901;55.024;73.254;2024-01-07T09:08:23;100849.53;;;-13.61;68.98
84677;BME280;74901;55.024;73.254;2024-01-07T09:10:53;100840.69;;;-13.55;68.52
84677;BME280;74901;55.024;73.254;2024-01-07T09:13:22;100839.47;;;-13.52;68.69
84677;BME280;74901;55.024;73.254;2024-01-07T09:15:52;100834.50;;;-13.49;68.49
84677;BME280;74901;55.024;73.254;2024-01-07T09:18:22;100824.88;;;-13.43;68.42
84677;BME280;74901;55.024;73.254;2024-01-07T09:20:54;100825.09;;;-13.45;68.61
84677;BME280;74901;55.024;73.254;2024-01-07T09:23:23;100814.88;;;-13.41;68.46
84677;BME280;74901;55.024;73.254;2024-01-07T09:25:52;100812.84;;;-13.39;68.16
84677;BME280;74901;55.024;73.254;2024-01-07T09:28:21;100807.75;;;-13.41;68.13
84677;BME280;74901;55.024;73.254;2024-01-07T09:30:54;100795.34;;;-13.40;68.22
84677;BME280;74901;55.024;73.254;2024-01-07T09:33:23;100793.16;;;-13.43;68.33
84677;BME280;74901;55.024;73.254;2024-01-07T09:35:52;100756.72;;;-13.53;68.65
84677;BME280;74901;55.024;73.254;2024-01-07T09:38:22;100773.84;;;-13.32;68.50
84677;BME280;74901;55.024;73.254;2024-01-07T09:40:53;100778.22;;;-13.26;68.24
84677;BME280;74901;55.024;73.254;2024-01-07T09:43:22;100764.31;;;-13.22;68.25
84677;BME280;74901;55.024;73.254;2024-01-07T09:45:56;100768.22;;;-13.13;68.31
84677;BME280;74901;55.024;73.254;2024-01-07T09:48:25;100760.38;;;-13.07;68.36
84677;BME280;74901;55.024;73.254;2024-01-07T09:50:54;100748.53;;;-13.05;68.42
84677;BME280;74901;55.024;73.254;2024-01-07T09:53:30;100737.25;;;-13.00;68.44
84677;BME280;74901;55.024;73.254;2024-01-07T09:56:07;100728.28;;;-12.99;68.33
84677;BME280;74901;55.024;73.254;2024-01-07T09:58:42;100727.59;;;-13.06;68.04
84677;BME280;74901;55.024;73.254;2024-01-07T10:01:16;100719.88;;;-13.08;68.15
84677;BME280;74901;55.024;73.254;2024-01-07T10:03:47;100720.94;;;-13.09;68.76
84677;BME280;74901;55.024;73.254;2024-01-07T10:06:20;100725.16;;;-13.08;68.64
84677;BME280;74901;55.024;73.254;2024-01-07T10:08:55;100722.66;;;-13.03;68.76
84677;BME280;74901;55.024;73.254;2024-01-07T10:11:25;100722.06;;;-12.93;68.45
84677;BME280;74901;55.024;73.254;2024-01-07T10:13:57;100730.00;;;-12.93;68.74
84677;BME280;74901;55.024;73.254;2024-01-07T10:16:30;100724.69;;;-12.93;68.85
84677;BME280;74901;55.024;73.254;2024-01-07T10:19:00;100717.34;;;-12.91;68.48
84677;BME280;74901;55.024;73.254;2024-01-07T10:21:29;100717.34;;;-12.91;68.79
84677;BME280;74901;55.024;73.254;2024-01-07T10:24:09;100717.56;;;-12.93;68.35
84677;BME280;74901;55.024;73.254;2024-01-07T10:26:39;100693.19;;;-12.95;68.95
84677;BME280;74901;55.024;73.254;2024-01-07T10:29:09;100703.88;;;-12.90;68.71
84677;BME280;74901;55.024;73.254;2024-01-07T10:31:47;100698.44;;;-12.83;68.55
84677;BME280;74901;55.024;73.254;2024-01-07T10:34:17;100677.53;;;-12.85;68.61
84677;BME280;74901;55.024;73.254;2024-01-07T10:36:48;100674.78;;;-12.90;68.78
84677;BME280;74901;55.024;73.254;2024-01-07T10:39:20;100679.72;;;-12.93;69.63
84677;BME280;74901;55.024;73.254;2024-01-07T10:41:50;100666.25;;;-12.92;69.54
84677;BME280;74901;55.024;73.254;2024-01-07T10:44:25;100662.72;;;-12.97;69.33
84677;BME280;74901;55.024;73.254;2024-01-07T10:46:56;100664.56;;;-12.98;69.63
84677;BME280;74901;55.024;73.254;2024-01-07T10:49:26;100652.81;;;-13.02;69.52
84677;BME280;74901;55.024;73.254;2024-01-07T10:52:03;100642.59;;;-12.98;69.45
84677;BME280;74901;55.024;73.254;2024-01-07T10:54:33;100638.31;;;-12.99;69.56
84677;BME280;74901;55.024;73.254;2024-01-07T10:57:09;100624.06;;;-12.98;69.57
84677;BME280;74901;55.024;73.254;2024-01-07T10:59:46;100621.16;;;-12.85;69.61
84677;BME280;74901;55.024;73.254;2024-01-07T11:02:20;100616.19;;;-12.82;69.80
84677;BME280;74901;55.024;73.254;2024-01-07T11:04:56;100604.56;;;-12.81;69.63
84677;BME280;74901;55.024;73.254;2024-01-07T11:07:51;100601.91;;;-12.81;69.97
84677;BME280;74901;55.024;73.254;2024-01-07T11:10:41;100593.16;;;-12.81;70.08
84677;BME280;74901;55.024;73.254;2024-01-07T11:13:35;100577.06;;;-12.80;70.16
84677;BME280;74901;55.024;73.254;2024-01-07T11:16:07;100584.19;;;-12.80;69.97
84677;BME280;74901;55.024;73.254;2024-01-07T11:18:58;100568.88;;;-12.78;70.07
84677;BME280;74901;55.024;73.254;2024-01-07T11:21:30;100570.16;;;-12.81;70.23
84677;BME280;74901;55.024;73.254;2024-01-07T11:24:00;100554.38;;;-12.76;70.37
84677;BME280;74901;55.024;73.254;2024-01-07T11:26:35;100555.75;;;-12.73;70.54
84677;BME280;74901;55.024;73.254;2024-01-07T11:29:09;100546.78;;;-12.72;70.69
84677;BME280;74901;55.024;73.254;2024-01-07T11:31:46;100544.44;;;-12.68;70.58
84677;BME280;74901;55.024;73.254;2024-01-07T11:34:42;100542.09;;;-12.65;70.84
84677;BME280;74901;55.024;73.254;2024-01-07T11:37:17;100536.66;;;-12.58;70.38
84677;BME280;74901;55.024;73.254;2024-01-07T11:39:54;100527.94;;;-12.59;70.84
84677;BME280;74901;55.024;73.254;2024-01-07T11:42:24;100525.28;;;-12.59;70.62
84677;BME280;74901;55.024;73.254;2024-01-07T11:44:54;100522.94;;;-12.55;70.88
84677;BME280;74901;55.024;73.254;2024-01-07T11:47:23;100514.78;;;-12.54;71.04
84677;BME280;74901;55.024;73.254;2024-01-07T11:49:56;100518.84;;;-12.46;70.95
84677;BME280;74901;55.024;73.254;2024-01-07T11:52:25;100514.94;;;-12.44;71.15
84677;BME280;74901;55.024;73.254;2024-01-07T11:54:57;100510.22;;;-12.42;71.16
84677;BME280;74901;55.024;73.254;2024-01-07T11:57:26;100499.19;;;-12.34;71.28
84677;BME280;74901;55.024;73.254;2024-01-07T12:00:20;100496.63;;;-12.28;71.39
84677;BME280;74901;55.024;73.254;2024-01-07T12:03:13;100484.19;;;-12.28;71.45
84677;BME280;74901;55.024;73.254;2024-01-07T12:05:48;100477.84;;;-12.27;71.67
84677;BME280;74901;55.024;73.254;2024-01-07T12:08:17;100469.72;;;-12.20;71.76
84677;BME280;74901;55.024;73.254;2024-01-07T12:10:48;100471.31;;;-12.19;71.83
84677;BME280;74901;55.024;73.254;2024-01-07T12:13:18;100454.97;;;-12.16;71.80
84677;BME280;74901;55.024;73.254;2024-01-07T12:15:47;100452.84;;;-12.14;71.81
84677;BME280;74901;55.024;73.254;2024-01-07T12:18:16;100449.50;;;-12.10;72.04
84677;BME280;74901;55.024;73.254;2024-01-07T12:20:56;100444.50;;;-12.06;72.36
84677;BME280;74901;55.024;73.254;2024-01-07T12:23:26;100436.59;;;-12.01;71.98
84677;BME280;74901;55.024;73.254;2024-01-07T12:25:55;100438.78;;;-11.98;72.16
84677;BME280;74901;55.024;73.254;2024-01-07T12:28:35;100428.47;;;-11.95;72.05
84677;BME280;74901;55.024;73.254;2024-01-07T12:31:04;100416.59;;;-11.92;72.42
84677;BME280;74901;55.024;73.254;2024-01-07T12:33:33;100420.03;;;-11.92;72.61
84677;BME280;74901;55.024;73.254;2024-01-07T12:36:04;100415.03;;;-11.88;72.45
84677;BME280;74901;55.024;73.254;2024-01-07T12:38:33;100409.00;;;-11.83;72.32
84677;BME280;74901;55.024;73.254;2024-01-07T12:41:05;100412.78;;;-11.79;72.25
84677;BME280;74901;55.024;73.254;2024-01-07T12:43:33;100401.91;;;-11.78;72.68
84677;BME280;74901;55.024;73.254;2024-01-07T12:46:03;100390.25;;;-11.77;72.57
84677;BME280;74901;55.024;73.254;2024-01-07T12:48:32;100392.69;;;-11.70;72.58
84677;BME280;74901;55.024;73.254;2024-01-07T12:51:06;100386.09;;;-11.68;73.13
84677;BME280;74901;55.024;73.254;2024-01-07T12:53:38;100377.09;;;-11.67;72.80
84677;BME280;74901;55.024;73.254;2024-01-07T13:04:25;100346.78;;;-11.49;72.92